createdAt,value
2019-05-06T00:03:26.160Z,1.93
2019-05-06T00:08:43.832Z,1.80
2019-05-06T00:13:59.084Z,1.83
2019-05-06T00:19:14.938Z,1.80
2019-05-06T00:24:37.230Z,1.80
2019-05-06T00:29:55.035Z,1.90
2019-05-06T00:35:10.535Z,1.80
2019-05-06T00:40:31.526Z,1.77
2019-05-06T00:45:47.534Z,1.80
2019-05-06T00:51:04.481Z,1.80
2019-05-06T00:56:20.970Z,2.13
2019-05-06T01:01:38.110Z,1.73
2019-05-06T01:06:54.468Z,1.97
2019-05-06T01:12:11.195Z,1.93
2019-05-06T01:17:26.884Z,1.70
2019-05-06T01:22:43.664Z,1.97
2019-05-06T01:28:00.666Z,2.23
2019-05-06T01:33:19.652Z,2.13
2019-05-06T01:38:41.861Z,2.07
2019-05-06T01:43:57.762Z,4.12
2019-05-06T01:49:13.794Z,2.73
2019-05-06T01:54:29.491Z,2.53
2019-05-06T01:59:45.106Z,2.63
2019-05-06T02:05:00.974Z,2.67
2019-05-06T02:10:17.046Z,2.03
2019-05-06T02:15:34.517Z,3.10
2019-05-06T02:20:53.824Z,2.47
2019-05-06T02:26:14.165Z,2.50
2019-05-06T02:32:17.351Z,2.60
2019-05-06T02:37:30.212Z,2.80
2019-05-06T02:42:45.892Z,3.33
2019-05-06T02:48:17.429Z,2.50
2019-05-06T02:53:33.592Z,2.50
2019-05-06T02:58:49.667Z,2.53
2019-05-06T03:04:05.333Z,2.40
2019-05-06T03:09:23.302Z,2.10
2019-05-06T03:14:38.971Z,2.83
2019-05-06T03:19:56.329Z,2.57
2019-05-06T03:25:18.626Z,2.77
2019-05-06T03:30:36.193Z,2.60
2019-05-06T03:36:05.430Z,2.63
2019-05-06T03:41:08.981Z,2.70
2019-05-06T03:46:34.758Z,2.53
2019-05-06T03:51:50.145Z,2.40
2019-05-06T03:57:06.794Z,2.40
2019-05-06T04:02:24.095Z,2.80
2019-05-06T04:07:45.430Z,2.70
2019-05-06T04:13:04.191Z,2.83
2019-05-06T04:18:23.613Z,3.07
2019-05-06T04:23:57.952Z,2.77
2019-05-06T04:29:13.868Z,2.97
2019-05-06T04:34:33.172Z,3.40
2019-05-06T04:39:52.974Z,3.80
2019-05-06T04:45:07.210Z,3.10
2019-05-06T04:50:24.210Z,2.80
2019-05-06T04:55:43.350Z,3.03
2019-05-06T05:00:58.736Z,3.17
2019-05-06T05:06:17.354Z,3.37
2019-05-06T05:11:39.075Z,3.47
2019-05-06T05:17:16.179Z,4.20
2019-05-06T05:22:32.617Z,3.07
2019-05-06T05:27:48.447Z,3.83
2019-05-06T05:33:05.311Z,3.20
2019-05-06T05:38:22.737Z,3.30
2019-05-06T05:43:54.210Z,3.30
2019-05-06T05:49:27.948Z,3.40
2019-05-06T05:54:44.103Z,3.07
2019-05-06T06:00:00.036Z,3.40
2019-05-06T06:05:16.162Z,3.30
2019-05-06T06:10:42.635Z,3.57
2019-05-06T06:16:17.323Z,4.20
2019-05-06T06:21:42.653Z,3.93
2019-05-06T06:26:58.757Z,3.60
2019-05-06T06:32:25.870Z,4.10
2019-05-06T06:37:52.394Z,4.13
2019-05-06T06:43:12.952Z,4.63
2019-05-06T06:48:29.146Z,4.90
2019-05-06T06:53:44.656Z,4.40
2019-05-06T06:59:10.118Z,4.77
2019-05-06T07:04:43.190Z,4.70
2019-05-06T07:09:59.121Z,4.97
2019-05-06T07:15:15.016Z,5.87
2019-05-06T07:20:34.153Z,5.87
2019-05-06T07:25:49.661Z,6.23
2019-05-06T07:31:18.636Z,9.30
2019-05-06T07:36:22.879Z,7.77
2019-05-06T07:41:46.062Z,6.10
2019-05-06T07:47:15.934Z,5.67
2019-05-06T07:52:32.533Z,5.27
2019-05-06T07:57:50.581Z,5.47
2019-05-06T08:03:06.289Z,5.30
2019-05-06T08:08:23.045Z,4.67
2019-05-06T08:13:38.847Z,4.53
2019-05-06T08:18:54.647Z,4.77
2019-05-06T08:24:12.044Z,3.97
2019-05-06T08:29:29.012Z,4.00
2019-05-06T08:34:44.476Z,4.10
2019-05-06T08:40:03.149Z,5.53
2019-05-06T08:45:18.377Z,4.00
2019-05-06T08:50:53.097Z,3.33
2019-05-06T08:56:12.719Z,3.80
2019-05-06T09:01:35.042Z,4.30
2019-05-06T09:06:53.184Z,3.93
2019-05-06T09:12:08.246Z,3.90
2019-05-06T09:17:23.787Z,4.17
2019-05-06T09:22:39.341Z,3.47
2019-05-06T09:28:02.708Z,3.63
2019-05-06T09:33:22.924Z,3.53
2019-05-06T09:38:38.570Z,3.60
2019-05-06T09:43:54.488Z,3.57
2019-05-06T09:49:23.054Z,3.60
2019-05-06T09:55:03.007Z,3.33
2019-05-06T10:00:19.039Z,3.70
2019-05-06T10:05:35.301Z,3.90
2019-05-06T10:10:56.752Z,3.43
2019-05-06T10:16:12.862Z,3.30
2019-05-06T10:21:28.350Z,3.43
2019-05-06T10:26:48.736Z,3.73
2019-05-06T10:32:26.804Z,3.60
2019-05-06T10:38:08.598Z,4.00
2019-05-06T10:43:56.062Z,3.53
2019-05-06T10:49:13.208Z,4.03
2019-05-06T10:54:29.294Z,4.00
2019-05-06T10:59:44.908Z,4.47
2019-05-06T11:05:02.718Z,4.03
2019-05-06T11:10:26.959Z,4.60
2019-05-06T11:15:35.542Z,3.67
2019-05-06T11:20:52.980Z,3.70
2019-05-06T11:26:08.281Z,3.47
2019-05-06T11:31:43.414Z,3.27
2019-05-06T11:37:17.826Z,3.17
2019-05-06T11:42:35.769Z,2.87
2019-05-06T11:47:50.836Z,3.13
2019-05-06T11:53:08.731Z,3.37
2019-05-06T11:58:47.641Z,3.63
2019-05-06T12:04:03.636Z,3.43
2019-05-06T12:09:19.454Z,3.33
2019-05-06T12:14:35.142Z,3.70
2019-05-06T12:19:52.844Z,3.30
2019-05-06T12:25:15.498Z,3.03
2019-05-06T12:30:32.738Z,3.30
2019-05-06T12:35:48.690Z,3.17
2019-05-06T12:41:04.730Z,3.00
2019-05-06T12:46:27.110Z,3.00
2019-05-06T12:51:43.372Z,3.27
2019-05-06T12:57:03.273Z,3.17
2019-05-06T13:02:18.693Z,3.00
2019-05-06T13:07:43.332Z,3.10
2019-05-06T13:13:02.760Z,2.90
2019-05-06T13:18:18.367Z,2.90
2019-05-06T13:23:42.674Z,2.97
2019-05-06T13:29:04.298Z,3.03
2019-05-06T13:34:23.225Z,3.40
2019-05-06T13:39:38.243Z,3.43
2019-05-06T13:44:57.328Z,3.67
2019-05-06T13:50:17.224Z,3.63
2019-05-06T13:55:36.681Z,3.47
2019-05-06T14:00:53.823Z,3.53
2019-05-06T14:06:12.317Z,3.00
2019-05-06T14:11:28.086Z,3.60
2019-05-06T14:16:44.069Z,3.57
2019-05-06T14:21:59.796Z,3.50
2019-05-06T14:27:23.560Z,3.80
2019-05-06T14:32:43.269Z,3.20
2019-05-06T14:37:59.461Z,4.00
2019-05-06T14:43:15.071Z,3.47
2019-05-06T14:48:33.062Z,3.27
2019-05-06T14:53:48.987Z,3.47
2019-05-06T14:59:06.073Z,3.63
2019-05-06T15:04:23.154Z,3.13
2019-05-06T15:09:55.344Z,2.83
2019-05-06T15:14:56.785Z,2.90
2019-05-06T15:20:12.508Z,2.87
2019-05-06T15:25:28.207Z,2.80
2019-05-06T15:31:03.166Z,2.57
2019-05-06T15:36:24.155Z,2.77
2019-05-06T15:41:40.057Z,3.27
2019-05-06T15:46:55.750Z,3.07
2019-05-06T15:52:12.470Z,3.40
2019-05-06T15:57:28.470Z,3.10
2019-05-06T16:02:46.846Z,3.03
2019-05-06T16:08:03.061Z,2.73
2019-05-06T16:13:19.103Z,2.83
2019-05-06T16:18:34.904Z,3.40
2019-05-06T16:23:58.943Z,2.90
2019-05-06T16:29:17.989Z,3.07
2019-05-06T16:34:34.506Z,3.33
2019-05-06T16:39:54.654Z,3.47
2019-05-06T16:45:18.423Z,3.33
2019-05-06T16:50:39.263Z,3.27
2019-05-06T16:56:13.074Z,3.73
2019-05-06T17:01:27.754Z,3.73
2019-05-06T17:06:43.990Z,3.47
2019-05-06T17:11:59.908Z,3.10
2019-05-06T17:17:22.776Z,3.37
2019-05-06T17:22:37.992Z,3.40
2019-05-06T17:27:53.860Z,3.13
2019-05-06T17:33:27.108Z,3.50
2019-05-06T17:38:46.223Z,3.37
2019-05-06T17:44:02.846Z,3.17
2019-05-06T17:49:23.636Z,3.63
2019-05-06T17:54:40.423Z,3.33
2019-05-06T17:59:56.638Z,3.27
2019-05-06T18:05:12.442Z,3.53
2019-05-06T18:10:28.402Z,3.80
2019-05-06T18:15:44.312Z,3.57
2019-05-06T18:21:02.444Z,3.77
2019-05-06T18:26:17.441Z,3.57
2019-05-06T18:31:33.746Z,3.80
2019-05-06T18:36:49.882Z,3.80
2019-05-06T18:42:16.769Z,4.17
2019-05-06T18:47:23.720Z,4.00
2019-05-06T18:52:45.673Z,4.30
2019-05-06T18:58:22.266Z,4.33
2019-05-06T19:03:56.231Z,4.40
2019-05-06T19:09:42.230Z,5.17
2019-05-06T19:15:03.292Z,4.67
2019-05-06T19:20:27.189Z,4.60
2019-05-06T19:25:43.110Z,3.57
2019-05-06T19:30:59.195Z,4.30
2019-05-06T19:36:15.939Z,3.87
2019-05-06T19:41:33.166Z,4.20
2019-05-06T19:46:49.284Z,4.07
2019-05-06T19:52:05.370Z,4.20
2019-05-06T19:57:22.278Z,4.23
2019-05-06T20:02:38.065Z,3.67
2019-05-06T20:08:08.170Z,3.77
2019-05-06T20:13:24.338Z,3.97
2019-05-06T20:18:42.302Z,3.80
2019-05-06T20:24:02.156Z,3.60
2019-05-06T20:29:17.526Z,4.47
2019-05-06T20:34:43.400Z,4.10
2019-05-06T20:39:59.722Z,4.27
2019-05-06T20:45:15.963Z,3.83
2019-05-06T20:50:32.237Z,5.03
2019-05-06T20:55:48.349Z,4.40
2019-05-06T21:01:06.574Z,4.83
2019-05-06T21:06:22.860Z,4.60
2019-05-06T21:11:42.706Z,4.63
2019-05-06T21:16:58.235Z,4.87
2019-05-06T21:22:13.960Z,5.20
2019-05-06T21:27:30.469Z,4.97
2019-05-06T21:32:46.595Z,4.43
2019-05-06T21:38:02.633Z,5.07
2019-05-06T21:43:20.109Z,4.63
2019-05-06T21:48:35.769Z,4.83
2019-05-06T21:53:51.426Z,4.93
2019-05-06T21:59:07.049Z,5.07
2019-05-06T22:04:23.267Z,4.50
2019-05-06T22:09:39.534Z,4.40
2019-05-06T22:14:55.384Z,4.63
2019-05-06T22:20:13.882Z,4.13
2019-05-06T22:25:29.440Z,4.67
2019-05-06T22:30:45.318Z,4.17
2019-05-06T22:36:02.237Z,4.93
2019-05-06T22:41:18.862Z,4.30
2019-05-06T22:46:34.397Z,4.73
2019-05-06T22:51:52.166Z,5.23
2019-05-06T22:57:07.870Z,4.03
2019-05-06T23:02:43.802Z,4.10
2019-05-06T23:07:59.808Z,3.93
2019-05-06T23:13:16.721Z,3.93
2019-05-06T23:18:36.045Z,4.27
2019-05-06T23:24:10.130Z,4.27
2019-05-06T23:29:36.065Z,4.80
2019-05-06T23:35:03.058Z,4.40
2019-05-06T23:41:12.503Z,4.97
2019-05-06T23:47:23.703Z,5.03
2019-05-06T23:53:33.049Z,4.83
2019-05-06T23:58:49.074Z,4.87
